Maersk Essen — V7UQ8 — position and weather

sailwx.info

Track history (hours):
 
Tides and Currents Weather Stations Pressure Air Temp Water Temp Dewpoint Dewpoint Depression Visibility Wind Speed Wind Dir Waves Ship Positions

Maersk Essen

Last reported at 2017-Sep-26 04:56 UTC. Time now 2017-Sep-26 21:58 UTC.
Position N 34°24' W 124°14'.

Length 367 m; draft 12.3 m.

Type: Ship (hazmat cat A). MMSI: 538004007.

Date/timePositionNaut miles runAvg speedWind from/ knotsBaromVisibWave heightAir tempDewpointWater temp
2017-Sep-26 04:56N 34°24' W 124°14'513.1
2017-Sep-26 04:30N 34°24' W 124°08'3613.0
2017-Sep-26 01:43N 34°25' W 123°24'812.7
2017-Sep-26 01:06N 34°25' W 123°14'112.7
2017-Sep-26 00:59N 34°25' W 123°13'613.4
2017-Sep-26 00:30N 34°25' W 123°05'713.0
2017-Sep-25 23:59N 34°25' W 122°57'613.3
2017-Sep-25 23:30N 34°25' W 122°49'713.2
2017-Sep-25 23:00N 34°25' W 122°41'713.4
2017-Sep-25 22:30N 34°25' W 122°33'713.3
2017-Sep-25 22:00N 34°26' W 122°25'713.4
2017-Sep-25 21:30N 34°26' W 122°16'713.4
2017-Sep-25 21:00N 34°26' W 122°08'713.4
2017-Sep-25 20:30N 34°26' W 122°00'713.2
2017-Sep-25 20:00N 34°26' W 121°52'613.0
2017-Sep-25 19:30N 34°26' W 121°44'612.6
2017-Sep-25 19:00N 34°26' W 121°37'712.9
2017-Sep-25 18:26N 34°26' W 121°28'613.1
2017-Sep-25 18:00N 34°26' W 121°21'713.2
2017-Sep-25 17:26N 34°26' W 121°12'613.4
2017-Sep-25 16:59N 34°26' W 121°05'713.4
2017-Sep-25 16:29N 34°26' W 120°56'611.9
2017-Sep-25 15:59N 34°26' W 120°49'611.6
2017-Sep-25 15:25N 34°24' W 120°42'511.3
2017-Sep-25 15:00N 34°23' W 120°36'510.3
2017-Sep-25 14:29N 34°21' W 120°30'5 9.8
2017-Sep-25 13:58N 34°20' W 120°24'5 9.8
2017-Sep-25 13:30N 34°19' W 120°19'5 9.9
2017-Sep-25 13:00N 34°17' W 120°13'5 9.7
2017-Sep-25 12:30N 34°16' W 120°07'510.0
2017-Sep-25 12:00N 34°15' W 120°02'510.0
2017-Sep-25 11:28N 34°13' W 119°55'5 9.9
2017-Sep-25 11:00N 34°12' W 119°50'510.0
2017-Sep-25 10:30N 34°11' W 119°44'5 9.8
2017-Sep-25 10:00N 34°10' W 119°38'610.1
2017-Sep-25 09:25N 34°08' W 119°31'510.2
2017-Sep-25 08:57N 34°07' W 119°26'5 9.9
2017-Sep-25 08:29N 34°06' W 119°20'510.7
2017-Sep-25 08:00N 34°04' W 119°14'611.4
2017-Sep-25 07:30N 34°01' W 119°09'611.6
2017-Sep-25 07:00N 33°58' W 119°03'611.7
2017-Sep-25 06:30N 33°55' W 118°57'611.7
2017-Sep-25 06:00N 33°52' W 118°51'611.7
2017-Sep-25 05:30N 33°50' W 118°44'611.9
2017-Sep-25 05:01N 33°46' W 118°38'611.7
2017-Sep-25 04:30N 33°44' W 118°32'611.6
2017-Sep-25 04:01N 33°41' W 118°26'611.4
2017-Sep-25 03:31N 33°38' W 118°20'5 9.8
2017-Sep-25 03:00N 33°39' W 118°14'4 7.7
2017-Sep-25 02:30N 33°42' W 118°11'3 6.7
2017-Sep-25 02:01N 33°45' W 118°13'1 1.3
2017-Sep-25 01:30N 33°45' W 118°14'0 0.0
2017-Sep-25 01:00N 33°45' W 118°14'0 0.0
2017-Sep-25 00:30N 33°45' W 118°14'0 0.0
2017-Sep-25 00:00N 33°45' W 118°14'0 0.0
2017-Sep-24 23:30N 33°45' W 118°14'0 0.0
2017-Sep-24 23:00N 33°45' W 118°14'0 0.0
2017-Sep-24 22:30N 33°45' W 118°14'0 0.0
2017-Sep-24 21:54N 33°45' W 118°14'0 0.0
2017-Sep-24 21:30N 33°45' W 118°14'0 0.0
2017-Sep-24 21:00N 33°45' W 118°14'0 0.0
2017-Sep-24 20:30N 33°45' W 118°14'0 0.0
2017-Sep-24 20:00N 33°45' W 118°14'0 0.0
2017-Sep-24 19:30N 33°45' W 118°14'0 0.0
2017-Sep-24 19:00N 33°45' W 118°14'0 0.0
2017-Sep-24 18:30N 33°45' W 118°14'0 0.0
2017-Sep-24 18:00N 33°45' W 118°14'0 0.0
2017-Sep-24 17:30N 33°45' W 118°14'0 0.0
2017-Sep-24 17:00N 33°45' W 118°14'0 0.0
2017-Sep-24 16:30N 33°45' W 118°14'0 0.0
2017-Sep-24 16:00N 33°45' W 118°14'0 0.0
2017-Sep-24 15:30N 33°45' W 118°14'0 0.0
2017-Sep-24 15:00N 33°45' W 118°14'0 0.0
2017-Sep-24 14:30N 33°45' W 118°14'0 0.0
2017-Sep-24 14:00N 33°45' W 118°14'0 0.0
2017-Sep-24 13:30N 33°45' W 118°14'0 0.0
2017-Sep-24 13:00N 33°45' W 118°14'0 0.0
2017-Sep-24 12:30N 33°45' W 118°14'0 0.0
2017-Sep-24 12:00N 33°45' W 118°14'0 0.0
2017-Sep-24 11:30N 33°45' W 118°14'0 0.0
2017-Sep-24 11:00N 33°45' W 118°14'0 0.0
2017-Sep-24 10:30N 33°45' W 118°14'0 0.0
2017-Sep-24 10:00N 33°45' W 118°14'0 0.0
2017-Sep-24 09:30N 33°45' W 118°14'0 0.0
2017-Sep-24 09:00N 33°45' W 118°14'0 0.0
2017-Sep-24 08:30N 33°45' W 118°14'0 0.0
2017-Sep-24 08:00N 33°45' W 118°14'0 0.0
2017-Sep-24 07:30N 33°45' W 118°14'0 0.0
2017-Sep-24 07:00N 33°45' W 118°14'0 0.0
2017-Sep-24 06:30N 33°45' W 118°14'0 0.0
2017-Sep-24 06:00N 33°45' W 118°14'0 0.0
2017-Sep-24 05:30N 33°45' W 118°14'0 0.0
2017-Sep-24 05:00N 33°45' W 118°14'0 0.0
2017-Sep-24 04:30N 33°45' W 118°14'0 0.0
2017-Sep-24 04:00N 33°45' W 118°14'0 0.0
2017-Sep-24 03:30N 33°45' W 118°14'0 0.0
2017-Sep-24 03:00N 33°45' W 118°14'0 0.0
2017-Sep-24 02:30N 33°45' W 118°14'0 0.0
2017-Sep-24 02:00N 33°45' W 118°14'0 0.0
2017-Sep-24 01:27N 33°45' W 118°14'0 0.0
2017-Sep-24 01:00N 33°45' W 118°14'0 0.0
2017-Sep-24 00:30N 33°45' W 118°14'0 0.0
2017-Sep-24 00:00N 33°45' W 118°14'0 0.0
2017-Sep-23 23:30N 33°45' W 118°14'0 0.0
2017-Sep-23 23:00N 33°45' W 118°14'0 0.0
2017-Sep-23 22:30N 33°45' W 118°14'0 0.0
2017-Sep-23 22:00N 33°45' W 118°14'0 0.0
2017-Sep-23 21:24N 33°45' W 118°14'0 0.0
2017-Sep-23 21:00N 33°45' W 118°14'0 0.0
2017-Sep-23 20:30N 33°45' W 118°14'0 0.0
2017-Sep-23 20:00N 33°45' W 118°14'0 0.0
2017-Sep-22 02:00N 33°45' W 118°14'0 0.0
2017-Sep-22 01:27N 33°45' W 118°14'0 0.0
2017-Sep-22 00:54N 33°45' W 118°14'0 0.0
2017-Sep-22 00:30N 33°45' W 118°14'0 0.0
2017-Sep-21 23:57N 33°45' W 118°14'0 0.0
2017-Sep-21 23:30N 33°45' W 118°14'0 0.0
2017-Sep-21 22:57N 33°45' W 118°14'0 0.0
2017-Sep-21 22:30N 33°45' W 118°14'0 0.0
2017-Sep-21 21:57N 33°45' W 118°14'0 0.0
2017-Sep-21 21:27N 33°45' W 118°14'0 0.0
2017-Sep-21 20:57N 33°45' W 118°14'0 0.0
2017-Sep-21 20:18N 33°45' W 118°14'0 0.0
2017-Sep-21 19:57N 33°45' W 118°14'0 0.0
2017-Sep-21 19:27N 33°45' W 118°14'0 0.0
2017-Sep-21 18:54N 33°45' W 118°14'0 0.0
2017-Sep-21 18:30N 33°45' W 118°14'0 0.0
2017-Sep-21 18:00N 33°45' W 118°14'0 0.0
2017-Sep-21 17:30N 33°45' W 118°14'0 0.0
2017-Sep-21 16:54N 33°45' W 118°14'0 0.0
2017-Sep-21 16:24N 33°45' W 118°14'0 0.0
2017-Sep-21 16:00N 33°45' W 118°14'0 0.0
2017-Sep-21 15:30N 33°45' W 118°14'0 0.0
2017-Sep-21 15:00N 33°45' W 118°14'0 0.0
2017-Sep-21 14:24N 33°45' W 118°14'0 0.0
2017-Sep-21 14:00N 33°45' W 118°14'0 0.0
2017-Sep-21 13:30N 33°45' W 118°14'0 0.0
2017-Sep-21 13:00N 33°45' W 118°14'0 0.0
2017-Sep-21 12:30N 33°45' W 118°14'0 0.0
2017-Sep-21 12:00N 33°45' W 118°14'0 0.0
2017-Sep-21 11:30N 33°45' W 118°14'0 0.0
2017-Sep-21 10:51N 33°45' W 118°14'0 0.0
2017-Sep-21 10:30N 33°45' W 118°14'0 0.0
2017-Sep-21 10:00N 33°45' W 118°14'0 0.0
2017-Sep-21 09:30N 33°45' W 118°14'0 0.0
2017-Sep-21 09:00N 33°45' W 118°14'0 0.0
2017-Sep-21 08:30N 33°45' W 118°14'0 0.0
2017-Sep-21 08:00N 33°45' W 118°14'0 0.0
2017-Sep-21 07:30N 33°45' W 118°14'0 0.0
2017-Sep-21 07:00N 33°45' W 118°14'0 0.0
2017-Sep-21 06:21N 33°45' W 118°14'0 0.0
2017-Sep-21 05:48N 33°45' W 118°14'0 0.0
2017-Sep-21 05:30N 33°45' W 118°14'0 0.0
2017-Sep-21 05:00N 33°45' W 118°14'0 0.0
2017-Sep-21 04:30N 33°45' W 118°14'0 0.0
2017-Sep-21 04:00N 33°45' W 118°14'0 0.0
2017-Sep-21 03:30N 33°45' W 118°14'0 0.0
2017-Sep-21 03:00N 33°45' W 118°14'0 0.0
2017-Sep-21 02:30N 33°45' W 118°14'0 0.0
2017-Sep-21 02:00N 33°45' W 118°14'0 0.0
2017-Sep-21 01:30N 33°45' W 118°14'0 0.0
2017-Sep-21 01:00N 33°45' W 118°14'0 0.0
2017-Sep-21 00:30N 33°45' W 118°14'0 0.0
2017-Sep-21 00:00N 33°45' W 118°14'0 0.0
2017-Sep-20 23:30N 33°45' W 118°14'0 0.0
2017-Sep-20 23:00N 33°45' W 118°14'0 0.0
2017-Sep-20 22:24N 33°45' W 118°14'0 0.0
2017-Sep-20 21:54N 33°45' W 118°14'0 0.0
2017-Sep-20 21:18N 33°45' W 118°14'0 0.0
2017-Sep-20 20:54N 33°45' W 118°14'0 0.0
2017-Sep-20 20:24N 33°45' W 118°14'0 0.0
2017-Sep-20 20:00N 33°45' W 118°14'0 0.0
2017-Sep-20 19:30N 33°45' W 118°14'0 0.0
2017-Sep-20 19:00N 33°45' W 118°14'0 0.0
2017-Sep-20 18:30N 33°45' W 118°14'0 0.0
2017-Sep-20 18:00N 33°45' W 118°14'0 0.0
2017-Sep-20 17:30N 33°45' W 118°14'0 0.0
2017-Sep-20 17:00N 33°45' W 118°14'0 0.0
2017-Sep-20 16:30N 33°45' W 118°14'0 0.0
2017-Sep-20 16:00N 33°45' W 118°14'0 0.0
2017-Sep-20 15:30N 33°45' W 118°14'0 0.0
2017-Sep-20 15:00N 33°45' W 118°14'0 0.0
2017-Sep-20 13:54N 33°45' W 118°14'0 0.0
2017-Sep-20 13:30N 33°45' W 118°14'0 0.0
2017-Sep-20 13:00N 33°45' W 118°14'0 0.0
2017-Sep-20 12:30N 33°45' W 118°14'0 0.0
2017-Sep-20 11:54N 33°45' W 118°14'0 0.0
2017-Sep-20 11:24N 33°45' W 118°14'0 0.0
2017-Sep-20 11:00N 33°45' W 118°14'0 0.0
2017-Sep-20 10:30N 33°45' W 118°14'0 0.0
2017-Sep-20 10:00N 33°45' W 118°14'0 0.0
2017-Sep-20 09:30N 33°45' W 118°14'0 0.0
2017-Sep-20 09:00N 33°45' W 118°14'0 0.0
2017-Sep-20 08:30N 33°45' W 118°14'0 0.0
2017-Sep-20 07:57N 33°45' W 118°14'0 0.0
2017-Sep-20 07:30N 33°45' W 118°14'0 0.0
2017-Sep-20 07:00N 33°45' W 118°14'0 0.0
2017-Sep-20 06:30N 33°45' W 118°14'0 0.0
2017-Sep-20 05:57N 33°45' W 118°14'0 0.0
2017-Sep-20 05:30N 33°45' W 118°14'0 0.0
2017-Sep-20 04:57N 33°45' W 118°14'0 0.0
2017-Sep-20 03:30N 33°45' W 118°14'0 0.0
2017-Sep-20 03:00N 33°45' W 118°14'0 0.0
2017-Sep-20 02:30N 33°45' W 118°14'0 0.0
2017-Sep-20 02:00N 33°45' W 118°14'0 0.0
2017-Sep-20 01:27N 33°45' W 118°14'0 0.0
2017-Sep-20 01:00N 33°45' W 118°14'0 0.0
2017-Sep-20 00:30N 33°45' W 118°14'0 0.0
2017-Sep-20 00:00N 33°45' W 118°14'0 0.0
2017-Sep-19 23:30N 33°45' W 118°14'0 0.0
2017-Sep-19 22:57N 33°45' W 118°14'0 0.0
2017-Sep-19 22:30N 33°45' W 118°14'0 0.0
2017-Sep-19 21:54N 33°45' W 118°14'0 0.0
2017-Sep-19 21:30N 33°45' W 118°14'0 0.0
2017-Sep-19 20:57N 33°45' W 118°14'0 0.0
2017-Sep-19 20:30N 33°45' W 118°14'0 0.0
2017-Sep-19 19:36N 33°45' W 118°14'0 0.0
2017-Sep-19 19:30N 33°45' W 118°14'0 0.0
2017-Sep-19 18:54N 33°45' W 118°14'0 0.0
2017-Sep-19 18:30N 33°45' W 118°14'0 0.0
2017-Sep-19 18:00N 33°45' W 118°14'0 0.0
2017-Sep-19 17:24N 33°45' W 118°14'0 0.0
2017-Sep-19 16:51N 33°45' W 118°14'0 0.0
2017-Sep-19 16:30N 33°45' W 118°14'0 0.0
2017-Sep-19 16:00N 33°45' W 118°14'0 0.0
2017-Sep-19 15:30N 33°45' W 118°14'0 0.0
2017-Sep-19 15:00N 33°45' W 118°14'0 0.0
2017-Sep-19 14:30N 33°45' W 118°14'0 0.0
2017-Sep-19 14:00N 33°45' W 118°14'0 0.0
2017-Sep-19 13:24N 33°45' W 118°14'0 0.0
2017-Sep-19 12:30N 33°45' W 118°14'0 0.0
2017-Sep-19 11:33N 33°45' W 118°14'0 0.0
2017-Sep-19 11:12N 33°45' W 118°14'0 0.3
2017-Sep-19 10:58N 33°45' W 118°14'1 1.3
2017-Sep-19 10:30N 33°45' W 118°13'4 7.8
2017-Sep-19 09:57N 33°41' W 118°11'4 8.0
2017-Sep-19 09:30N 33°38' W 118°12'4 8.0
2017-Sep-19 09:01N 33°36' W 118°16'5 9.2
2017-Sep-19 08:30N 33°37' W 118°22'5 9.2
2017-Sep-19 08:00N 33°39' W 118°27'4 8.6
2017-Sep-19 07:31N 33°41' W 118°31'5 9.6
2017-Sep-19 07:00N 33°43' W 118°36'5 9.9
2017-Sep-19 06:30N 33°46' W 118°41'510.0
2017-Sep-19 06:00N 33°49' W 118°47'5 9.9
2017-Sep-19 05:30N 33°51' W 118°52'510.0
2017-Sep-19 05:00N 33°53' W 118°57'510.0
2017-Sep-19 04:30N 33°56' W 119°02'510.9
2017-Sep-19 04:01N 33°59' W 119°08'611.7
2017-Sep-19 03:30N 34°01' W 119°14'713.2
2017-Sep-19 03:00N 34°04' W 119°22'612.4
2017-Sep-19 02:31N 34°05' W 119°29'5 9.8
2017-Sep-19 02:00N 34°07' W 119°35'5 9.9
2017-Sep-19 01:27N 34°08' W 119°41'4 9.6
2017-Sep-19 01:00N 34°09' W 119°46'510.0
2017-Sep-19 00:30N 34°11' W 119°52'5 9.8
2017-Sep-18 23:58N 34°12' W 119°58'510.0
2017-Sep-18 23:28N 34°13' W 120°04'5 9.8
2017-Sep-18 23:00N 34°14' W 120°09'510.0
2017-Sep-18 22:31N 34°16' W 120°15'510.1
2017-Sep-18 22:00N 34°17' W 120°21'510.0
2017-Sep-18 21:27N 34°18' W 120°27'5 9.9
2017-Sep-18 20:58N 34°20' W 120°33'5 9.9
2017-Sep-18 20:30N 34°21' W 120°38'610.0
2017-Sep-18 19:56N 34°23' W 120°45'410.2
2017-Sep-18 19:30N 34°24' W 120°50'3 6.5
2017-Sep-18 19:01N 34°22' W 120°54'3 6.7
2017-Sep-18 18:31N 34°20' W 120°57'917.9
2017-Sep-18 18:00N 34°24' W 121°07'1220.9
2017-Sep-18 17:25N 34°24' W 121°22'920.8
2017-Sep-18 17:00N 34°24' W 121°32'1121.0
2017-Sep-18 16:29N 34°24' W 121°45'1021.1
2017-Sep-18 16:00N 34°24' W 121°57'1121.0
2017-Sep-18 15:29N 34°24' W 122°10'  
Track history (hours):
 
Tides and Currents Weather Stations Pressure Air Temp Water Temp Dewpoint Dewpoint Depression Visibility Wind Speed Wind Dir Waves Ship Positions

Maersk Essen

Last reported at 2017-Sep-26 04:56 UTC. Time now 2017-Sep-26 21:58 UTC.
Position N 34°24' W 124°14'.

Length 367 m; draft 12.3 m.

Type: Ship (hazmat cat A). MMSI: 538004007.

Date/timePositionNaut miles runAvg speedWind from/ knotsBaromVisibWave heightAir tempDewpointWater temp
2017-Sep-26 04:56N 34°24' W 124°14'513.1
2017-Sep-26 04:30N 34°24' W 124°08'3613.0
2017-Sep-26 01:43N 34°25' W 123°24'812.7
2017-Sep-26 01:06N 34°25' W 123°14'112.7
2017-Sep-26 00:59N 34°25' W 123°13'613.4
2017-Sep-26 00:30N 34°25' W 123°05'713.0
2017-Sep-25 23:59N 34°25' W 122°57'613.3
2017-Sep-25 23:30N 34°25' W 122°49'713.2
2017-Sep-25 23:00N 34°25' W 122°41'713.4
2017-Sep-25 22:30N 34°25' W 122°33'713.3
2017-Sep-25 22:00N 34°26' W 122°25'713.4
2017-Sep-25 21:30N 34°26' W 122°16'713.4
2017-Sep-25 21:00N 34°26' W 122°08'713.4
2017-Sep-25 20:30N 34°26' W 122°00'713.2
2017-Sep-25 20:00N 34°26' W 121°52'613.0
2017-Sep-25 19:30N 34°26' W 121°44'612.6
2017-Sep-25 19:00N 34°26' W 121°37'712.9
2017-Sep-25 18:26N 34°26' W 121°28'613.1
2017-Sep-25 18:00N 34°26' W 121°21'713.2
2017-Sep-25 17:26N 34°26' W 121°12'613.4
2017-Sep-25 16:59N 34°26' W 121°05'713.4
2017-Sep-25 16:29N 34°26' W 120°56'611.9
2017-Sep-25 15:59N 34°26' W 120°49'611.6
2017-Sep-25 15:25N 34°24' W 120°42'511.3
2017-Sep-25 15:00N 34°23' W 120°36'510.3
2017-Sep-25 14:29N 34°21' W 120°30'5 9.8
2017-Sep-25 13:58N 34°20' W 120°24'5 9.8
2017-Sep-25 13:30N 34°19' W 120°19'5 9.9
2017-Sep-25 13:00N 34°17' W 120°13'5 9.7
2017-Sep-25 12:30N 34°16' W 120°07'510.0
2017-Sep-25 12:00N 34°15' W 120°02'510.0
2017-Sep-25 11:28N 34°13' W 119°55'5 9.9
2017-Sep-25 11:00N 34°12' W 119°50'510.0
2017-Sep-25 10:30N 34°11' W 119°44'5 9.8
2017-Sep-25 10:00N 34°10' W 119°38'610.1
2017-Sep-25 09:25N 34°08' W 119°31'510.2
2017-Sep-25 08:57N 34°07' W 119°26'5 9.9
2017-Sep-25 08:29N 34°06' W 119°20'510.7
2017-Sep-25 08:00N 34°04' W 119°14'611.4
2017-Sep-25 07:30N 34°01' W 119°09'611.6
2017-Sep-25 07:00N 33°58' W 119°03'611.7
2017-Sep-25 06:30N 33°55' W 118°57'611.7
2017-Sep-25 06:00N 33°52' W 118°51'611.7
2017-Sep-25 05:30N 33°50' W 118°44'611.9
2017-Sep-25 05:01N 33°46' W 118°38'611.7
2017-Sep-25 04:30N 33°44' W 118°32'611.6
2017-Sep-25 04:01N 33°41' W 118°26'611.4
2017-Sep-25 03:31N 33°38' W 118°20'5 9.8
2017-Sep-25 03:00N 33°39' W 118°14'4 7.7
2017-Sep-25 02:30N 33°42' W 118°11'3 6.7
2017-Sep-25 02:01N 33°45' W 118°13'1 1.3
2017-Sep-25 01:30N 33°45' W 118°14'0 0.0
2017-Sep-25 01:00N 33°45' W 118°14'0 0.0
2017-Sep-25 00:30N 33°45' W 118°14'0 0.0
2017-Sep-25 00:00N 33°45' W 118°14'0 0.0
2017-Sep-24 23:30N 33°45' W 118°14'0 0.0
2017-Sep-24 23:00N 33°45' W 118°14'0 0.0
2017-Sep-24 22:30N 33°45' W 118°14'0 0.0
2017-Sep-24 21:54N 33°45' W 118°14'0 0.0
2017-Sep-24 21:30N 33°45' W 118°14'0 0.0
2017-Sep-24 21:00N 33°45' W 118°14'0 0.0
2017-Sep-24 20:30N 33°45' W 118°14'0 0.0
2017-Sep-24 20:00N 33°45' W 118°14'0 0.0
2017-Sep-24 19:30N 33°45' W 118°14'0 0.0
2017-Sep-24 19:00N 33°45' W 118°14'0 0.0
2017-Sep-24 18:30N 33°45' W 118°14'0 0.0
2017-Sep-24 18:00N 33°45' W 118°14'0 0.0
2017-Sep-24 17:30N 33°45' W 118°14'0 0.0
2017-Sep-24 17:00N 33°45' W 118°14'0 0.0
2017-Sep-24 16:30N 33°45' W 118°14'0 0.0
2017-Sep-24 16:00N 33°45' W 118°14'0 0.0
2017-Sep-24 15:30N 33°45' W 118°14'0 0.0
2017-Sep-24 15:00N 33°45' W 118°14'0 0.0
2017-Sep-24 14:30N 33°45' W 118°14'0 0.0
2017-Sep-24 14:00N 33°45' W 118°14'0 0.0
2017-Sep-24 13:30N 33°45' W 118°14'0 0.0
2017-Sep-24 13:00N 33°45' W 118°14'0 0.0
2017-Sep-24 12:30N 33°45' W 118°14'0 0.0
2017-Sep-24 12:00N 33°45' W 118°14'0 0.0
2017-Sep-24 11:30N 33°45' W 118°14'0 0.0
2017-Sep-24 11:00N 33°45' W 118°14'0 0.0
2017-Sep-24 10:30N 33°45' W 118°14'0 0.0
2017-Sep-24 10:00N 33°45' W 118°14'0 0.0
2017-Sep-24 09:30N 33°45' W 118°14'0 0.0
2017-Sep-24 09:00N 33°45' W 118°14'0 0.0
2017-Sep-24 08:30N 33°45' W 118°14'0 0.0
2017-Sep-24 08:00N 33°45' W 118°14'0 0.0
2017-Sep-24 07:30N 33°45' W 118°14'0 0.0
2017-Sep-24 07:00N 33°45' W 118°14'0 0.0
2017-Sep-24 06:30N 33°45' W 118°14'0 0.0
2017-Sep-24 06:00N 33°45' W 118°14'0 0.0
2017-Sep-24 05:30N 33°45' W 118°14'0 0.0
2017-Sep-24 05:00N 33°45' W 118°14'0 0.0
2017-Sep-24 04:30N 33°45' W 118°14'0 0.0
2017-Sep-24 04:00N 33°45' W 118°14'0 0.0
2017-Sep-24 03:30N 33°45' W 118°14'0 0.0
2017-Sep-24 03:00N 33°45' W 118°14'0 0.0
2017-Sep-24 02:30N 33°45' W 118°14'0 0.0
2017-Sep-24 02:00N 33°45' W 118°14'0 0.0
2017-Sep-24 01:27N 33°45' W 118°14'0 0.0
2017-Sep-24 01:00N 33°45' W 118°14'0 0.0
2017-Sep-24 00:30N 33°45' W 118°14'0 0.0
2017-Sep-24 00:00N 33°45' W 118°14'0 0.0
2017-Sep-23 23:30N 33°45' W 118°14'0 0.0
2017-Sep-23 23:00N 33°45' W 118°14'0 0.0
2017-Sep-23 22:30N 33°45' W 118°14'0 0.0
2017-Sep-23 22:00N 33°45' W 118°14'0 0.0
2017-Sep-23 21:24N 33°45' W 118°14'0 0.0
2017-Sep-23 21:00N 33°45' W 118°14'0 0.0
2017-Sep-23 20:30N 33°45' W 118°14'0 0.0
2017-Sep-23 20:00N 33°45' W 118°14'0 0.0
2017-Sep-22 02:00N 33°45' W 118°14'0 0.0
2017-Sep-22 01:27N 33°45' W 118°14'0 0.0
2017-Sep-22 00:54N 33°45' W 118°14'0 0.0
2017-Sep-22 00:30N 33°45' W 118°14'0 0.0
2017-Sep-21 23:57N 33°45' W 118°14'0 0.0
2017-Sep-21 23:30N 33°45' W 118°14'0 0.0
2017-Sep-21 22:57N 33°45' W 118°14'0 0.0
2017-Sep-21 22:30N 33°45' W 118°14'0 0.0
2017-Sep-21 21:57N 33°45' W 118°14'0 0.0
2017-Sep-21 21:27N 33°45' W 118°14'0 0.0
2017-Sep-21 20:57N 33°45' W 118°14'0 0.0
2017-Sep-21 20:18N 33°45' W 118°14'0 0.0
2017-Sep-21 19:57N 33°45' W 118°14'0 0.0
2017-Sep-21 19:27N 33°45' W 118°14'0 0.0
2017-Sep-21 18:54N 33°45' W 118°14'0 0.0
2017-Sep-21 18:30N 33°45' W 118°14'0 0.0
2017-Sep-21 18:00N 33°45' W 118°14'0 0.0
2017-Sep-21 17:30N 33°45' W 118°14'0 0.0
2017-Sep-21 16:54N 33°45' W 118°14'0 0.0
2017-Sep-21 16:24N 33°45' W 118°14'0 0.0
2017-Sep-21 16:00N 33°45' W 118°14'0 0.0
2017-Sep-21 15:30N 33°45' W 118°14'0 0.0
2017-Sep-21 15:00N 33°45' W 118°14'0 0.0
2017-Sep-21 14:24N 33°45' W 118°14'0 0.0
2017-Sep-21 14:00N 33°45' W 118°14'0 0.0
2017-Sep-21 13:30N 33°45' W 118°14'0 0.0
2017-Sep-21 13:00N 33°45' W 118°14'0 0.0
2017-Sep-21 12:30N 33°45' W 118°14'0 0.0
2017-Sep-21 12:00N 33°45' W 118°14'0 0.0
2017-Sep-21 11:30N 33°45' W 118°14'0 0.0
2017-Sep-21 10:51N 33°45' W 118°14'0 0.0
2017-Sep-21 10:30N 33°45' W 118°14'0 0.0
2017-Sep-21 10:00N 33°45' W 118°14'0 0.0
2017-Sep-21 09:30N 33°45' W 118°14'0 0.0
2017-Sep-21 09:00N 33°45' W 118°14'0 0.0
2017-Sep-21 08:30N 33°45' W 118°14'0 0.0
2017-Sep-21 08:00N 33°45' W 118°14'0 0.0
2017-Sep-21 07:30N 33°45' W 118°14'0 0.0
2017-Sep-21 07:00N 33°45' W 118°14'0 0.0
2017-Sep-21 06:21N 33°45' W 118°14'0 0.0
2017-Sep-21 05:48N 33°45' W 118°14'0 0.0
2017-Sep-21 05:30N 33°45' W 118°14'0 0.0
2017-Sep-21 05:00N 33°45' W 118°14'0 0.0
2017-Sep-21 04:30N 33°45' W 118°14'0 0.0
2017-Sep-21 04:00N 33°45' W 118°14'0 0.0
2017-Sep-21 03:30N 33°45' W 118°14'0 0.0
2017-Sep-21 03:00N 33°45' W 118°14'0 0.0
2017-Sep-21 02:30N 33°45' W 118°14'0 0.0
2017-Sep-21 02:00N 33°45' W 118°14'0 0.0
2017-Sep-21 01:30N 33°45' W 118°14'0 0.0
2017-Sep-21 01:00N 33°45' W 118°14'0 0.0
2017-Sep-21 00:30N 33°45' W 118°14'0 0.0
2017-Sep-21 00:00N 33°45' W 118°14'0 0.0
2017-Sep-20 23:30N 33°45' W 118°14'0 0.0
2017-Sep-20 23:00N 33°45' W 118°14'0 0.0
2017-Sep-20 22:24N 33°45' W 118°14'0 0.0
2017-Sep-20 21:54N 33°45' W 118°14'0 0.0
2017-Sep-20 21:18N 33°45' W 118°14'0 0.0
2017-Sep-20 20:54N 33°45' W 118°14'0 0.0
2017-Sep-20 20:24N 33°45' W 118°14'0 0.0
2017-Sep-20 20:00N 33°45' W 118°14'0 0.0
2017-Sep-20 19:30N 33°45' W 118°14'0 0.0
2017-Sep-20 19:00N 33°45' W 118°14'0 0.0
2017-Sep-20 18:30N 33°45' W 118°14'0 0.0
2017-Sep-20 18:00N 33°45' W 118°14'0 0.0
2017-Sep-20 17:30N 33°45' W 118°14'0 0.0
2017-Sep-20 17:00N 33°45' W 118°14'0 0.0
2017-Sep-20 16:30N 33°45' W 118°14'0 0.0
2017-Sep-20 16:00N 33°45' W 118°14'0 0.0
2017-Sep-20 15:30N 33°45' W 118°14'0 0.0
2017-Sep-20 15:00N 33°45' W 118°14'0 0.0
2017-Sep-20 13:54N 33°45' W 118°14'0 0.0
2017-Sep-20 13:30N 33°45' W 118°14'0 0.0
2017-Sep-20 13:00N 33°45' W 118°14'0 0.0
2017-Sep-20 12:30N 33°45' W 118°14'0 0.0
2017-Sep-20 11:54N 33°45' W 118°14'0 0.0
2017-Sep-20 11:24N 33°45' W 118°14'0 0.0
2017-Sep-20 11:00N 33°45' W 118°14'0 0.0
2017-Sep-20 10:30N 33°45' W 118°14'0 0.0
2017-Sep-20 10:00N 33°45' W 118°14'0 0.0
2017-Sep-20 09:30N 33°45' W 118°14'0 0.0
2017-Sep-20 09:00N 33°45' W 118°14'0 0.0
2017-Sep-20 08:30N 33°45' W 118°14'0 0.0
2017-Sep-20 07:57N 33°45' W 118°14'0 0.0
2017-Sep-20 07:30N 33°45' W 118°14'0 0.0
2017-Sep-20 07:00N 33°45' W 118°14'0 0.0
2017-Sep-20 06:30N 33°45' W 118°14'0 0.0
2017-Sep-20 05:57N 33°45' W 118°14'0 0.0
2017-Sep-20 05:30N 33°45' W 118°14'0 0.0
2017-Sep-20 04:57N 33°45' W 118°14'0 0.0
2017-Sep-20 03:30N 33°45' W 118°14'0 0.0
2017-Sep-20 03:00N 33°45' W 118°14'0 0.0
2017-Sep-20 02:30N 33°45' W 118°14'0 0.0
2017-Sep-20 02:00N 33°45' W 118°14'0 0.0
2017-Sep-20 01:27N 33°45' W 118°14'0 0.0
2017-Sep-20 01:00N 33°45' W 118°14'0 0.0
2017-Sep-20 00:30N 33°45' W 118°14'0 0.0
2017-Sep-20 00:00N 33°45' W 118°14'0 0.0
2017-Sep-19 23:30N 33°45' W 118°14'0 0.0
2017-Sep-19 22:57N 33°45' W 118°14'0 0.0
2017-Sep-19 22:30N 33°45' W 118°14'0 0.0
2017-Sep-19 21:54N 33°45' W 118°14'0 0.0
2017-Sep-19 21:30N 33°45' W 118°14'0 0.0
2017-Sep-19 20:57N 33°45' W 118°14'0 0.0
2017-Sep-19 20:30N 33°45' W 118°14'0 0.0
2017-Sep-19 19:36N 33°45' W 118°14'0 0.0
2017-Sep-19 19:30N 33°45' W 118°14'0 0.0
2017-Sep-19 18:54N 33°45' W 118°14'0 0.0
2017-Sep-19 18:30N 33°45' W 118°14'0 0.0
2017-Sep-19 18:00N 33°45' W 118°14'0 0.0
2017-Sep-19 17:24N 33°45' W 118°14'0 0.0
2017-Sep-19 16:51N 33°45' W 118°14'0 0.0
2017-Sep-19 16:30N 33°45' W 118°14'0 0.0
2017-Sep-19 16:00N 33°45' W 118°14'0 0.0
2017-Sep-19 15:30N 33°45' W 118°14'0 0.0
2017-Sep-19 15:00N 33°45' W 118°14'0 0.0
2017-Sep-19 14:30N 33°45' W 118°14'0 0.0
2017-Sep-19 14:00N 33°45' W 118°14'0 0.0
2017-Sep-19 13:24N 33°45' W 118°14'0 0.0
2017-Sep-19 12:30N 33°45' W 118°14'0 0.0
2017-Sep-19 11:33N 33°45' W 118°14'0 0.0
2017-Sep-19 11:12N 33°45' W 118°14'0 0.3
2017-Sep-19 10:58N 33°45' W 118°14'1 1.3
2017-Sep-19 10:30N 33°45' W 118°13'4 7.8
2017-Sep-19 09:57N 33°41' W 118°11'4 8.0
2017-Sep-19 09:30N 33°38' W 118°12'4 8.0
2017-Sep-19 09:01N 33°36' W 118°16'5 9.2
2017-Sep-19 08:30N 33°37' W 118°22'5 9.2
2017-Sep-19 08:00N 33°39' W 118°27'4 8.6
2017-Sep-19 07:31N 33°41' W 118°31'5 9.6
2017-Sep-19 07:00N 33°43' W 118°36'5 9.9
2017-Sep-19 06:30N 33°46' W 118°41'510.0
2017-Sep-19 06:00N 33°49' W 118°47'5 9.9
2017-Sep-19 05:30N 33°51' W 118°52'510.0
2017-Sep-19 05:00N 33°53' W 118°57'510.0
2017-Sep-19 04:30N 33°56' W 119°02'510.9
2017-Sep-19 04:01N 33°59' W 119°08'611.7
2017-Sep-19 03:30N 34°01' W 119°14'713.2
2017-Sep-19 03:00N 34°04' W 119°22'612.4
2017-Sep-19 02:31N 34°05' W 119°29'5 9.8
2017-Sep-19 02:00N 34°07' W 119°35'5 9.9
2017-Sep-19 01:27N 34°08' W 119°41'4 9.6
2017-Sep-19 01:00N 34°09' W 119°46'510.0
2017-Sep-19 00:30N 34°11' W 119°52'5 9.8
2017-Sep-18 23:58N 34°12' W 119°58'510.0
2017-Sep-18 23:28N 34°13' W 120°04'5 9.8
2017-Sep-18 23:00N 34°14' W 120°09'510.0
2017-Sep-18 22:31N 34°16' W 120°15'510.1
2017-Sep-18 22:00N 34°17' W 120°21'510.0
2017-Sep-18 21:27N 34°18' W 120°27'5 9.9
2017-Sep-18 20:58N 34°20' W 120°33'5 9.9
2017-Sep-18 20:30N 34°21' W 120°38'610.0
2017-Sep-18 19:56N 34°23' W 120°45'410.2
2017-Sep-18 19:30N 34°24' W 120°50'3 6.5
2017-Sep-18 19:01N 34°22' W 120°54'3 6.7
2017-Sep-18 18:31N 34°20' W 120°57'917.9
2017-Sep-18 18:00N 34°24' W 121°07'1220.9
2017-Sep-18 17:25N 34°24' W 121°22'920.8
2017-Sep-18 17:00N 34°24' W 121°32'1121.0
2017-Sep-18 16:29N 34°24' W 121°45'1021.1
2017-Sep-18 16:00N 34°24' W 121°57'1121.0
2017-Sep-18 15:29N 34°24' W 122°10'  

Dump ship's entire track history